sensor_id;sensor_type;location;lat;lon;timestamp;P1;durP1;ratioP1;P2;durP2;ratioP2
79330;SDS011;68797;49.782;19.054;2023-10-13T00:02:10;14.23;;;7.03;;
79330;SDS011;68797;49.782;19.054;2023-10-13T00:04:36;17.55;;;8.85;;
79330;SDS011;68797;49.782;19.054;2023-10-13T00:07:03;13.52;;;8.23;;
79330;SDS011;68797;49.782;19.054;2023-10-13T00:09:31;14.52;;;7.22;;
79330;SDS011;68797;49.782;19.054;2023-10-13T00:12:05;12.93;;;7.15;;
79330;SDS011;68797;49.782;19.054;2023-10-13T00:14:40;14.20;;;9.05;;
79330;SDS011;68797;49.782;19.054;2023-10-13T00:17:14;18.35;;;8.18;;
79330;SDS011;68797;49.782;19.054;2023-10-13T00:19:45;21.70;;;9.80;;
79330;SDS011;68797;49.782;19.054;2023-10-13T00:22:13;15.68;;;9.27;;
79330;SDS011;68797;49.782;19.054;2023-10-13T00:24:43;15.23;;;8.43;;
79330;SDS011;68797;49.782;19.054;2023-10-13T00:27:13;23.50;;;11.35;;
79330;SDS011;68797;49.782;19.054;2023-10-13T00:29:57;18.23;;;10.35;;
79330;SDS011;68797;49.782;19.054;2023-10-13T00:32:41;19.38;;;10.73;;
79330;SDS011;68797;49.782;19.054;2023-10-13T00:35:13;17.85;;;10.52;;
79330;SDS011;68797;49.782;19.054;2023-10-13T00:37:58;21.17;;;10.40;;
79330;SDS011;68797;49.782;19.054;2023-10-13T00:40:39;24.80;;;11.32;;
79330;SDS011;68797;49.782;19.054;2023-10-13T00:43:06;21.13;;;11.40;;
79330;SDS011;68797;49.782;19.054;2023-10-13T00:45:51;20.65;;;11.23;;
79330;SDS011;68797;49.782;19.054;2023-10-13T00:48:30;18.75;;;9.93;;
79330;SDS011;68797;49.782;19.054;2023-10-13T00:51:08;19.52;;;10.55;;
79330;SDS011;68797;49.782;19.054;2023-10-13T00:53:54;25.20;;;12.85;;
79330;SDS011;68797;49.782;19.054;2023-10-13T00:56:24;23.95;;;12.82;;
79330;SDS011;68797;49.782;19.054;2023-10-13T00:58:58;21.70;;;12.13;;
79330;SDS011;68797;49.782;19.054;2023-10-13T01:01:33;22.02;;;11.85;;
79330;SDS011;68797;49.782;19.054;2023-10-13T01:04:00;19.20;;;10.68;;
79330;SDS011;68797;49.782;19.054;2023-10-13T01:06:30;19.48;;;11.20;;
79330;SDS011;68797;49.782;19.054;2023-10-13T01:11:45;23.02;;;11.05;;
79330;SDS011;68797;49.782;19.054;2023-10-13T01:14:18;17.73;;;10.05;;
79330;SDS011;68797;49.782;19.054;2023-10-13T01:16:48;18.73;;;9.63;;
79330;SDS011;68797;49.782;19.054;2023-10-13T01:19:18;15.65;;;9.52;;
79330;SDS011;68797;49.782;19.054;2023-10-13T01:21:50;18.75;;;9.45;;
79330;SDS011;68797;49.782;19.054;2023-10-13T01:24:28;17.30;;;9.38;;
79330;SDS011;68797;49.782;19.054;2023-10-13T01:26:57;20.13;;;9.38;;
79330;SDS011;68797;49.782;19.054;2023-10-13T01:29:29;19.77;;;9.70;;
79330;SDS011;68797;49.782;19.054;2023-10-13T01:31:55;17.25;;;9.23;;
79330;SDS011;68797;49.782;19.054;2023-10-13T01:34:22;16.02;;;9.10;;
79330;SDS011;68797;49.782;19.054;2023-10-13T01:39:23;17.17;;;9.38;;
79330;SDS011;68797;49.782;19.054;2023-10-13T01:41:57;16.27;;;8.57;;
79330;SDS011;68797;49.782;19.054;2023-10-13T01:44:24;16.80;;;8.85;;
79330;SDS011;68797;49.782;19.054;2023-10-13T01:47:01;14.57;;;7.85;;
79330;SDS011;68797;49.782;19.054;2023-10-13T01:49:35;18.08;;;8.68;;
79330;SDS011;68797;49.782;19.054;2023-10-13T01:52:14;13.52;;;7.65;;
79330;SDS011;68797;49.782;19.054;2023-10-13T01:54:45;15.57;;;8.15;;
79330;SDS011;68797;49.782;19.054;2023-10-13T01:57:14;14.45;;;8.07;;
79330;SDS011;68797;49.782;19.054;2023-10-13T01:59:44;12.95;;;7.47;;
79330;SDS011;68797;49.782;19.054;2023-10-13T02:02:11;15.18;;;7.95;;
79330;SDS011;68797;49.782;19.054;2023-10-13T02:04:38;14.18;;;7.88;;
79330;SDS011;68797;49.782;19.054;2023-10-13T02:07:16;17.00;;;7.70;;
79330;SDS011;68797;49.782;19.054;2023-10-13T02:09:43;13.30;;;7.55;;
79330;SDS011;68797;49.782;19.054;2023-10-13T02:12:11;11.63;;;6.65;;
79330;SDS011;68797;49.782;19.054;2023-10-13T02:14:41;11.65;;;6.72;;
79330;SDS011;68797;49.782;19.054;2023-10-13T02:19:42;14.25;;;7.40;;
79330;SDS011;68797;49.782;19.054;2023-10-13T02:22:14;12.55;;;7.07;;
79330;SDS011;68797;49.782;19.054;2023-10-13T02:24:58;11.32;;;6.32;;
79330;SDS011;68797;49.782;19.054;2023-10-13T02:27:35;16.35;;;6.85;;
79330;SDS011;68797;49.782;19.054;2023-10-13T02:30:07;11.43;;;6.45;;
79330;SDS011;68797;49.782;19.054;2023-10-13T02:32:40;14.35;;;7.13;;
79330;SDS011;68797;49.782;19.054;2023-10-13T02:35:10;11.70;;;6.50;;
79330;SDS011;68797;49.782;19.054;2023-10-13T02:37:41;10.38;;;6.47;;
79330;SDS011;68797;49.782;19.054;2023-10-13T02:40:20;11.90;;;6.97;;
79330;SDS011;68797;49.782;19.054;2023-10-13T02:42:49;13.73;;;6.78;;
79330;SDS011;68797;49.782;19.054;2023-10-13T02:45:17;14.35;;;7.47;;
79330;SDS011;68797;49.782;19.054;2023-10-13T02:47:47;12.70;;;6.28;;
79330;SDS011;68797;49.782;19.054;2023-10-13T02:50:34;13.35;;;6.50;;
79330;SDS011;68797;49.782;19.054;2023-10-13T02:53:00;13.60;;;5.95;;
79330;SDS011;68797;49.782;19.054;2023-10-13T02:55:26;11.98;;;6.82;;
79330;SDS011;68797;49.782;19.054;2023-10-13T02:57:54;11.65;;;6.35;;
79330;SDS011;68797;49.782;19.054;2023-10-13T03:00:25;11.63;;;6.30;;
79330;SDS011;68797;49.782;19.054;2023-10-13T03:03:00;11.98;;;6.88;;
79330;SDS011;68797;49.782;19.054;2023-10-13T03:05:27;9.32;;;5.63;;
79330;SDS011;68797;49.782;19.054;2023-10-13T03:07:57;8.98;;;6.03;;
79330;SDS011;68797;49.782;19.054;2023-10-13T03:10:25;13.55;;;6.60;;
79330;SDS011;68797;49.782;19.054;2023-10-13T03:12:55;10.13;;;6.20;;
79330;SDS011;68797;49.782;19.054;2023-10-13T03:17:55;8.80;;;5.32;;
79330;SDS011;68797;49.782;19.054;2023-10-13T03:20:24;13.13;;;6.10;;
79330;SDS011;68797;49.782;19.054;2023-10-13T03:22:58;9.35;;;5.50;;
79330;SDS011;68797;49.782;19.054;2023-10-13T03:25:25;13.40;;;5.90;;
79330;SDS011;68797;49.782;19.054;2023-10-13T03:27:56;10.65;;;6.03;;
79330;SDS011;68797;49.782;19.054;2023-10-13T03:30:23;11.43;;;6.35;;
79330;SDS011;68797;49.782;19.054;2023-10-13T03:35:23;8.27;;;5.32;;
79330;SDS011;68797;49.782;19.054;2023-10-13T03:37:51;10.95;;;5.95;;
79330;SDS011;68797;49.782;19.054;2023-10-13T03:40:18;9.40;;;5.68;;
79330;SDS011;68797;49.782;19.054;2023-10-13T03:42:47;11.48;;;5.85;;
79330;SDS011;68797;49.782;19.054;2023-10-13T03:45:45;12.10;;;5.95;;
79330;SDS011;68797;49.782;19.054;2023-10-13T03:48:15;9.18;;;5.53;;
79330;SDS011;68797;49.782;19.054;2023-10-13T03:50:58;8.70;;;5.50;;
79330;SDS011;68797;49.782;19.054;2023-10-13T03:53:34;9.68;;;5.25;;
79330;SDS011;68797;49.782;19.054;2023-10-13T03:56:03;8.95;;;4.82;;
79330;SDS011;68797;49.782;19.054;2023-10-13T03:58:34;7.60;;;5.40;;
79330;SDS011;68797;49.782;19.054;2023-10-13T04:01:08;10.90;;;5.50;;
79330;SDS011;68797;49.782;19.054;2023-10-13T04:03:40;7.57;;;5.15;;
79330;SDS011;68797;49.782;19.054;2023-10-13T04:06:23;14.85;;;6.75;;
79330;SDS011;68797;49.782;19.054;2023-10-13T04:09:13;8.00;;;5.30;;
79330;SDS011;68797;49.782;19.054;2023-10-13T04:11:57;8.20;;;4.68;;
79330;SDS011;68797;49.782;19.054;2023-10-13T04:14:41;7.22;;;4.75;;
79330;SDS011;68797;49.782;19.054;2023-10-13T04:17:19;9.68;;;4.53;;
79330;SDS011;68797;49.782;19.054;2023-10-13T04:19:55;8.52;;;4.88;;
79330;SDS011;68797;49.782;19.054;2023-10-13T04:22:39;8.18;;;5.03;;
79330;SDS011;68797;49.782;19.054;2023-10-13T04:25:25;7.15;;;4.47;;
79330;SDS011;68797;49.782;19.054;2023-10-13T04:28:14;7.72;;;4.57;;
79330;SDS011;68797;49.782;19.054;2023-10-13T04:31:00;7.63;;;4.50;;
79330;SDS011;68797;49.782;19.054;2023-10-13T04:33:38;8.45;;;4.88;;
79330;SDS011;68797;49.782;19.054;2023-10-13T04:36:18;9.48;;;4.78;;
79330;SDS011;68797;49.782;19.054;2023-10-13T04:38:59;9.05;;;4.68;;
79330;SDS011;68797;49.782;19.054;2023-10-13T04:44:11;7.95;;;4.53;;
79330;SDS011;68797;49.782;19.054;2023-10-13T04:46:51;10.48;;;5.32;;
79330;SDS011;68797;49.782;19.054;2023-10-13T04:49:25;8.30;;;4.45;;
79330;SDS011;68797;49.782;19.054;2023-10-13T04:52:15;9.38;;;4.50;;
79330;SDS011;68797;49.782;19.054;2023-10-13T04:55:02;7.15;;;4.32;;
79330;SDS011;68797;49.782;19.054;2023-10-13T04:57:57;7.22;;;4.38;;
79330;SDS011;68797;49.782;19.054;2023-10-13T05:03:41;11.15;;;4.22;;
79330;SDS011;68797;49.782;19.054;2023-10-13T05:06:41;8.07;;;4.15;;
79330;SDS011;68797;49.782;19.054;2023-10-13T05:09:07;10.18;;;4.70;;
79330;SDS011;68797;49.782;19.054;2023-10-13T05:11:52;8.73;;;4.40;;
79330;SDS011;68797;49.782;19.054;2023-10-13T05:14:38;9.18;;;4.47;;
79330;SDS011;68797;49.782;19.054;2023-10-13T05:17:23;8.18;;;4.90;;
79330;SDS011;68797;49.782;19.054;2023-10-13T05:20:09;10.05;;;5.28;;
79330;SDS011;68797;49.782;19.054;2023-10-13T05:22:55;8.48;;;4.85;;
79330;SDS011;68797;49.782;19.054;2023-10-13T05:25:43;7.40;;;4.63;;
79330;SDS011;68797;49.782;19.054;2023-10-13T05:28:52;12.15;;;5.57;;
79330;SDS011;68797;49.782;19.054;2023-10-13T05:31:37;9.07;;;5.40;;
79330;SDS011;68797;49.782;19.054;2023-10-13T05:34:22;10.15;;;5.57;;
79330;SDS011;68797;49.782;19.054;2023-10-13T05:37:07;7.70;;;4.65;;
79330;SDS011;68797;49.782;19.054;2023-10-13T05:39:52;10.43;;;5.57;;
79330;SDS011;68797;49.782;19.054;2023-10-13T05:42:37;8.38;;;5.38;;
79330;SDS011;68797;49.782;19.054;2023-10-13T05:45:22;11.52;;;4.80;;
79330;SDS011;68797;49.782;19.054;2023-10-13T05:48:03;7.68;;;4.90;;
79330;SDS011;68797;49.782;19.054;2023-10-13T05:50:39;8.32;;;5.25;;
79330;SDS011;68797;49.782;19.054;2023-10-13T05:53:45;9.75;;;4.63;;
79330;SDS011;68797;49.782;19.054;2023-10-13T05:56:30;10.13;;;5.18;;
79330;SDS011;68797;49.782;19.054;2023-10-13T05:59:15;9.63;;;5.28;;
79330;SDS011;68797;49.782;19.054;2023-10-13T06:02:00;8.93;;;5.00;;
79330;SDS011;68797;49.782;19.054;2023-10-13T06:04:45;13.02;;;4.65;;
79330;SDS011;68797;49.782;19.054;2023-10-13T06:07:33;9.70;;;5.35;;
79330;SDS011;68797;49.782;19.054;2023-10-13T06:10:18;10.00;;;5.15;;
79330;SDS011;68797;49.782;19.054;2023-10-13T06:13:03;12.15;;;5.35;;
79330;SDS011;68797;49.782;19.054;2023-10-13T06:15:48;7.30;;;4.68;;
79330;SDS011;68797;49.782;19.054;2023-10-13T06:18:33;9.05;;;4.97;;
79330;SDS011;68797;49.782;19.054;2023-10-13T06:21:21;9.85;;;5.13;;
79330;SDS011;68797;49.782;19.054;2023-10-13T06:24:06;10.55;;;5.22;;
79330;SDS011;68797;49.782;19.054;2023-10-13T06:26:52;9.88;;;5.75;;
79330;SDS011;68797;49.782;19.054;2023-10-13T06:29:37;9.02;;;4.70;;
79330;SDS011;68797;49.782;19.054;2023-10-13T06:32:03;9.93;;;5.03;;
79330;SDS011;68797;49.782;19.054;2023-10-13T06:34:36;12.18;;;4.95;;
79330;SDS011;68797;49.782;19.054;2023-10-13T06:37:14;11.57;;;4.57;;
79330;SDS011;68797;49.782;19.054;2023-10-13T06:39:57;10.40;;;5.43;;
79330;SDS011;68797;49.782;19.054;2023-10-13T06:42:32;10.27;;;4.93;;
79330;SDS011;68797;49.782;19.054;2023-10-13T06:45:02;11.63;;;4.72;;
79330;SDS011;68797;49.782;19.054;2023-10-13T06:47:34;11.27;;;5.78;;
79330;SDS011;68797;49.782;19.054;2023-10-13T06:50:13;12.38;;;4.57;;
79330;SDS011;68797;49.782;19.054;2023-10-13T06:52:42;9.95;;;4.57;;
79330;SDS011;68797;49.782;19.054;2023-10-13T06:55:09;11.00;;;5.25;;
79330;SDS011;68797;49.782;19.054;2023-10-13T06:57:43;7.72;;;4.20;;
79330;SDS011;68797;49.782;19.054;2023-10-13T07:00:10;13.70;;;5.55;;
79330;SDS011;68797;49.782;19.054;2023-10-13T07:05:44;9.40;;;4.97;;
79330;SDS011;68797;49.782;19.054;2023-10-13T07:08:15;8.75;;;4.72;;
79330;SDS011;68797;49.782;19.054;2023-10-13T07:10:51;12.80;;;4.47;;
79330;SDS011;68797;49.782;19.054;2023-10-13T07:13:18;10.82;;;5.55;;
79330;SDS011;68797;49.782;19.054;2023-10-13T07:15:45;10.52;;;4.40;;
79330;SDS011;68797;49.782;19.054;2023-10-13T07:18:17;11.93;;;5.00;;
79330;SDS011;68797;49.782;19.054;2023-10-13T07:21:31;10.40;;;4.93;;
79330;SDS011;68797;49.782;19.054;2023-10-13T07:24:12;12.32;;;4.93;;
79330;SDS011;68797;49.782;19.054;2023-10-13T07:26:41;10.63;;;4.95;;
79330;SDS011;68797;49.782;19.054;2023-10-13T07:29:28;9.95;;;4.90;;
79330;SDS011;68797;49.782;19.054;2023-10-13T07:31:56;7.25;;;4.50;;
79330;SDS011;68797;49.782;19.054;2023-10-13T07:34:22;14.43;;;5.63;;
79330;SDS011;68797;49.782;19.054;2023-10-13T07:36:57;11.18;;;5.20;;
79330;SDS011;68797;49.782;19.054;2023-10-13T07:39:31;10.85;;;5.10;;
79330;SDS011;68797;49.782;19.054;2023-10-13T07:42:00;8.63;;;4.65;;
79330;SDS011;68797;49.782;19.054;2023-10-13T07:44:33;8.68;;;3.90;;
79330;SDS011;68797;49.782;19.054;2023-10-13T07:47:00;9.30;;;4.78;;
79330;SDS011;68797;49.782;19.054;2023-10-13T07:49:31;8.85;;;4.93;;
79330;SDS011;68797;49.782;19.054;2023-10-13T07:52:04;10.68;;;4.72;;
79330;SDS011;68797;49.782;19.054;2023-10-13T07:54:47;7.28;;;4.45;;
79330;SDS011;68797;49.782;19.054;2023-10-13T07:59:59;8.10;;;4.55;;
79330;SDS011;68797;49.782;19.054;2023-10-13T08:02:58;7.13;;;3.80;;
79330;SDS011;68797;49.782;19.054;2023-10-13T08:08:45;8.00;;;4.18;;
79330;SDS011;68797;49.782;19.054;2023-10-13T08:11:17;14.10;;;5.38;;
79330;SDS011;68797;49.782;19.054;2023-10-13T08:13:49;9.70;;;5.15;;
79330;SDS011;68797;49.782;19.054;2023-10-13T08:16:26;10.50;;;4.63;;
79330;SDS011;68797;49.782;19.054;2023-10-13T08:19:14;8.88;;;4.28;;
79330;SDS011;68797;49.782;19.054;2023-10-13T08:21:45;9.88;;;4.45;;
79330;SDS011;68797;49.782;19.054;2023-10-13T08:24:17;13.15;;;4.13;;
79330;SDS011;68797;49.782;19.054;2023-10-13T08:27:20;6.82;;;3.58;;
79330;SDS011;68797;49.782;19.054;2023-10-13T08:30:06;8.88;;;4.00;;
79330;SDS011;68797;49.782;19.054;2023-10-13T08:32:52;8.05;;;4.07;;
79330;SDS011;68797;49.782;19.054;2023-10-13T08:35:22;7.13;;;4.18;;
79330;SDS011;68797;49.782;19.054;2023-10-13T08:37:51;14.52;;;8.40;;
79330;SDS011;68797;49.782;19.054;2023-10-13T08:40:17;9.02;;;4.88;;
79330;SDS011;68797;49.782;19.054;2023-10-13T08:43:07;14.93;;;8.88;;
79330;SDS011;68797;49.782;19.054;2023-10-13T08:45:38;9.68;;;4.80;;
79330;SDS011;68797;49.782;19.054;2023-10-13T08:48:11;8.38;;;4.20;;
79330;SDS011;68797;49.782;19.054;2023-10-13T08:50:42;7.40;;;4.05;;
79330;SDS011;68797;49.782;19.054;2023-10-13T08:53:26;10.25;;;4.55;;
79330;SDS011;68797;49.782;19.054;2023-10-13T08:56:14;7.55;;;4.50;;
79330;SDS011;68797;49.782;19.054;2023-10-13T08:58:44;7.75;;;4.18;;
79330;SDS011;68797;49.782;19.054;2023-10-13T09:01:21;8.18;;;5.05;;
79330;SDS011;68797;49.782;19.054;2023-10-13T09:06:44;5.70;;;4.20;;
79330;SDS011;68797;49.782;19.054;2023-10-13T09:12:29;8.57;;;5.43;;
79330;SDS011;68797;49.782;19.054;2023-10-13T09:15:00;10.55;;;4.60;;
79330;SDS011;68797;49.782;19.054;2023-10-13T09:17:54;8.68;;;4.90;;
79330;SDS011;68797;49.782;19.054;2023-10-13T09:20:37;10.77;;;4.57;;
79330;SDS011;68797;49.782;19.054;2023-10-13T09:23:09;8.38;;;4.35;;
79330;SDS011;68797;49.782;19.054;2023-10-13T09:25:39;8.05;;;3.85;;
79330;SDS011;68797;49.782;19.054;2023-10-13T09:28:19;6.97;;;3.90;;
79330;SDS011;68797;49.782;19.054;2023-10-13T09:30:52;8.98;;;4.63;;
79330;SDS011;68797;49.782;19.054;2023-10-13T09:33:20;6.32;;;4.18;;
79330;SDS011;68797;49.782;19.054;2023-10-13T09:35:55;7.85;;;4.25;;
79330;SDS011;68797;49.782;19.054;2023-10-13T09:38:28;8.98;;;4.93;;
79330;SDS011;68797;49.782;19.054;2023-10-13T09:40:55;6.93;;;4.45;;
79330;SDS011;68797;49.782;19.054;2023-10-13T09:43:26;7.57;;;3.85;;
79330;SDS011;68797;49.782;19.054;2023-10-13T09:46:00;7.28;;;4.03;;
79330;SDS011;68797;49.782;19.054;2023-10-13T09:48:44;11.10;;;4.57;;
79330;SDS011;68797;49.782;19.054;2023-10-13T09:51:13;7.68;;;3.97;;
79330;SDS011;68797;49.782;19.054;2023-10-13T09:53:40;11.18;;;7.72;;
79330;SDS011;68797;49.782;19.054;2023-10-13T09:56:25;14.88;;;5.03;;
79330;SDS011;68797;49.782;19.054;2023-10-13T10:01:40;6.70;;;4.35;;
79330;SDS011;68797;49.782;19.054;2023-10-13T10:04:18;8.77;;;4.38;;
79330;SDS011;68797;49.782;19.054;2023-10-13T10:06:52;8.25;;;4.78;;
79330;SDS011;68797;49.782;19.054;2023-10-13T10:14:25;9.20;;;4.43;;
79330;SDS011;68797;49.782;19.054;2023-10-13T10:17:08;7.85;;;4.20;;
79330;SDS011;68797;49.782;19.054;2023-10-13T10:22:26;6.97;;;3.97;;
79330;SDS011;68797;49.782;19.054;2023-10-13T10:24:58;7.25;;;4.03;;
79330;SDS011;68797;49.782;19.054;2023-10-13T10:27:27;8.05;;;4.00;;
79330;SDS011;68797;49.782;19.054;2023-10-13T10:29:55;9.00;;;3.88;;
79330;SDS011;68797;49.782;19.054;2023-10-13T10:32:32;6.72;;;4.03;;
79330;SDS011;68797;49.782;19.054;2023-10-13T10:35:17;6.03;;;4.00;;
79330;SDS011;68797;49.782;19.054;2023-10-13T10:37:49;6.57;;;3.92;;
79330;SDS011;68797;49.782;19.054;2023-10-13T10:43:01;5.60;;;3.83;;
79330;SDS011;68797;49.782;19.054;2023-10-13T10:45:36;5.15;;;3.35;;
79330;SDS011;68797;49.782;19.054;2023-10-13T10:48:11;8.23;;;3.88;;
79330;SDS011;68797;49.782;19.054;2023-10-13T10:50:56;7.47;;;4.35;;
79330;SDS011;68797;49.782;19.054;2023-10-13T10:53:25;6.50;;;3.80;;
79330;SDS011;68797;49.782;19.054;2023-10-13T10:56:07;7.20;;;4.18;;
79330;SDS011;68797;49.782;19.054;2023-10-13T10:58:46;6.60;;;4.88;;
79330;SDS011;68797;49.782;19.054;2023-10-13T11:01:13;10.77;;;4.28;;
79330;SDS011;68797;49.782;19.054;2023-10-13T11:03:56;6.20;;;4.32;;
79330;SDS011;68797;49.782;19.054;2023-10-13T11:06:27;7.72;;;4.25;;
79330;SDS011;68797;49.782;19.054;2023-10-13T11:09:03;8.93;;;5.07;;
79330;SDS011;68797;49.782;19.054;2023-10-13T11:11:33;8.85;;;4.43;;
79330;SDS011;68797;49.782;19.054;2023-10-13T11:14:05;9.13;;;4.78;;
79330;SDS011;68797;49.782;19.054;2023-10-13T11:16:47;6.45;;;4.07;;
79330;SDS011;68797;49.782;19.054;2023-10-13T11:19:40;8.52;;;4.18;;
79330;SDS011;68797;49.782;19.054;2023-10-13T11:25:19;6.20;;;4.35;;
79330;SDS011;68797;49.782;19.054;2023-10-13T11:28:14;7.53;;;4.28;;
79330;SDS011;68797;49.782;19.054;2023-10-13T11:30:56;8.27;;;4.63;;
79330;SDS011;68797;49.782;19.054;2023-10-13T11:33:26;8.40;;;4.50;;
79330;SDS011;68797;49.782;19.054;2023-10-13T11:35:57;7.47;;;3.53;;
79330;SDS011;68797;49.782;19.054;2023-10-13T11:38:28;6.05;;;3.63;;
79330;SDS011;68797;49.782;19.054;2023-10-13T11:41:08;8.05;;;4.47;;
79330;SDS011;68797;49.782;19.054;2023-10-13T11:43:38;8.18;;;4.10;;
79330;SDS011;68797;49.782;19.054;2023-10-13T11:46:09;8.50;;;4.80;;
79330;SDS011;68797;49.782;19.054;2023-10-13T11:51:03;8.60;;;4.10;;
79330;SDS011;68797;49.782;19.054;2023-10-13T11:53:36;9.35;;;4.32;;
79330;SDS011;68797;49.782;19.054;2023-10-13T11:56:04;7.03;;;3.78;;
79330;SDS011;68797;49.782;19.054;2023-10-13T11:58:37;11.68;;;4.10;;
79330;SDS011;68797;49.782;19.054;2023-10-13T12:01:06;6.78;;;3.90;;
79330;SDS011;68797;49.782;19.054;2023-10-13T12:03:39;6.53;;;3.30;;
79330;SDS011;68797;49.782;19.054;2023-10-13T12:06:27;7.20;;;3.15;;
79330;SDS011;68797;49.782;19.054;2023-10-13T12:09:04;6.30;;;2.97;;
79330;SDS011;68797;49.782;19.054;2023-10-13T12:11:40;4.55;;;3.13;;
79330;SDS011;68797;49.782;19.054;2023-10-13T12:14:08;4.55;;;2.67;;
79330;SDS011;68797;49.782;19.054;2023-10-13T12:16:43;4.95;;;2.50;;
79330;SDS011;68797;49.782;19.054;2023-10-13T12:19:23;4.68;;;2.85;;
79330;SDS011;68797;49.782;19.054;2023-10-13T12:22:23;7.15;;;2.67;;
79330;SDS011;68797;49.782;19.054;2023-10-13T12:25:01;6.40;;;2.85;;
79330;SDS011;68797;49.782;19.054;2023-10-13T12:27:48;7.57;;;3.05;;
79330;SDS011;68797;49.782;19.054;2023-10-13T12:30:16;4.82;;;2.80;;
79330;SDS011;68797;49.782;19.054;2023-10-13T12:32:49;3.90;;;2.75;;
79330;SDS011;68797;49.782;19.054;2023-10-13T12:35:32;4.45;;;2.83;;
79330;SDS011;68797;49.782;19.054;2023-10-13T12:38:04;10.55;;;6.07;;
79330;SDS011;68797;49.782;19.054;2023-10-13T12:40:42;8.43;;;4.10;;
79330;SDS011;68797;49.782;19.054;2023-10-13T12:43:28;6.82;;;2.63;;
79330;SDS011;68797;49.782;19.054;2023-10-13T12:46:13;6.15;;;2.60;;
79330;SDS011;68797;49.782;19.054;2023-10-13T12:48:58;3.95;;;2.60;;
79330;SDS011;68797;49.782;19.054;2023-10-13T12:51:32;4.88;;;2.90;;
79330;SDS011;68797;49.782;19.054;2023-10-13T12:54:00;6.43;;;2.75;;
79330;SDS011;68797;49.782;19.054;2023-10-13T12:56:40;4.68;;;2.83;;
79330;SDS011;68797;49.782;19.054;2023-10-13T12:59:10;6.55;;;2.90;;
79330;SDS011;68797;49.782;19.054;2023-10-13T13:01:39;4.00;;;2.70;;
79330;SDS011;68797;49.782;19.054;2023-10-13T13:04:10;4.43;;;2.63;;
79330;SDS011;68797;49.782;19.054;2023-10-13T13:06:47;4.90;;;2.72;;
79330;SDS011;68797;49.782;19.054;2023-10-13T13:09:26;4.43;;;2.92;;
79330;SDS011;68797;49.782;19.054;2023-10-13T13:12:19;3.90;;;2.60;;
79330;SDS011;68797;49.782;19.054;2023-10-13T13:14:48;5.38;;;3.03;;
79330;SDS011;68797;49.782;19.054;2023-10-13T13:17:26;4.75;;;3.17;;
79330;SDS011;68797;49.782;19.054;2023-10-13T13:22:19;3.92;;;2.53;;
79330;SDS011;68797;49.782;19.054;2023-10-13T13:24:46;4.97;;;2.80;;
79330;SDS011;68797;49.782;19.054;2023-10-13T13:27:14;4.50;;;2.90;;
79330;SDS011;68797;49.782;19.054;2023-10-13T13:29:45;5.10;;;3.00;;
79330;SDS011;68797;49.782;19.054;2023-10-13T13:32:12;4.13;;;2.78;;
79330;SDS011;68797;49.782;19.054;2023-10-13T13:34:51;5.50;;;2.90;;
79330;SDS011;68797;49.782;19.054;2023-10-13T14:48:38;6.38;;;3.92;;
79330;SDS011;68797;49.782;19.054;2023-10-13T14:51:08;10.35;;;5.32;;
79330;SDS011;68797;49.782;19.054;2023-10-13T14:53:41;10.48;;;4.40;;
79330;SDS011;68797;49.782;19.054;2023-10-13T14:56:14;9.05;;;4.22;;
79330;SDS011;68797;49.782;19.054;2023-10-13T14:58:43;11.73;;;5.18;;
79330;SDS011;68797;49.782;19.054;2023-10-13T15:01:13;8.73;;;4.55;;
79330;SDS011;68797;49.782;19.054;2023-10-13T15:03:47;6.35;;;4.20;;
79330;SDS011;68797;49.782;19.054;2023-10-13T15:06:25;7.43;;;4.10;;
79330;SDS011;68797;49.782;19.054;2023-10-13T15:08:57;9.63;;;4.88;;
79330;SDS011;68797;49.782;19.054;2023-10-13T15:11:26;9.88;;;5.10;;
79330;SDS011;68797;49.782;19.054;2023-10-13T15:13:54;11.57;;;5.40;;
79330;SDS011;68797;49.782;19.054;2023-10-13T15:16:22;9.23;;;5.53;;
79330;SDS011;68797;49.782;19.054;2023-10-13T15:21:23;15.10;;;7.63;;
79330;SDS011;68797;49.782;19.054;2023-10-13T15:24:12;11.20;;;7.50;;
79330;SDS011;68797;49.782;19.054;2023-10-13T15:26:43;9.82;;;5.32;;
79330;SDS011;68797;49.782;19.054;2023-10-13T15:29:23;9.55;;;5.18;;
79330;SDS011;68797;49.782;19.054;2023-10-13T15:32:05;8.55;;;5.80;;
79330;SDS011;68797;49.782;19.054;2023-10-13T15:34:52;8.98;;;5.22;;
79330;SDS011;68797;49.782;19.054;2023-10-13T15:37:19;9.45;;;5.85;;
79330;SDS011;68797;49.782;19.054;2023-10-13T15:39:47;9.32;;;5.07;;
79330;SDS011;68797;49.782;19.054;2023-10-13T15:42:14;9.07;;;4.75;;
79330;SDS011;68797;49.782;19.054;2023-10-13T15:44:41;10.88;;;5.20;;
79330;SDS011;68797;49.782;19.054;2023-10-13T15:47:09;8.27;;;4.97;;
79330;SDS011;68797;49.782;19.054;2023-10-13T15:49:39;13.23;;;5.40;;
79330;SDS011;68797;49.782;19.054;2023-10-13T15:52:08;9.27;;;4.50;;
79330;SDS011;68797;49.782;19.054;2023-10-13T15:54:36;9.35;;;4.90;;
79330;SDS011;68797;49.782;19.054;2023-10-13T15:57:03;7.97;;;4.60;;
79330;SDS011;68797;49.782;19.054;2023-10-13T15:59:36;9.63;;;4.45;;
79330;SDS011;68797;49.782;19.054;2023-10-13T16:02:03;11.23;;;4.90;;
79330;SDS011;68797;49.782;19.054;2023-10-13T16:04:34;10.80;;;4.45;;
79330;SDS011;68797;49.782;19.054;2023-10-13T16:07:00;7.65;;;4.97;;
79330;SDS011;68797;49.782;19.054;2023-10-13T16:09:28;7.95;;;4.65;;
79330;SDS011;68797;49.782;19.054;2023-10-13T16:11:55;20.25;;;10.73;;
79330;SDS011;68797;49.782;19.054;2023-10-13T16:14:22;14.45;;;7.72;;
79330;SDS011;68797;49.782;19.054;2023-10-13T16:16:49;12.90;;;5.95;;
79330;SDS011;68797;49.782;19.054;2023-10-13T16:19:19;9.63;;;5.47;;
79330;SDS011;68797;49.782;19.054;2023-10-13T16:21:50;8.50;;;5.10;;
79330;SDS011;68797;49.782;19.054;2023-10-13T16:24:18;10.55;;;5.15;;
79330;SDS011;68797;49.782;19.054;2023-10-13T16:26:48;9.50;;;5.50;;
79330;SDS011;68797;49.782;19.054;2023-10-13T16:29:21;10.23;;;4.93;;
79330;SDS011;68797;49.782;19.054;2023-10-13T16:31:48;11.70;;;4.80;;
79330;SDS011;68797;49.782;19.054;2023-10-13T16:34:15;9.05;;;5.63;;
79330;SDS011;68797;49.782;19.054;2023-10-13T16:36:43;13.02;;;5.65;;
79330;SDS011;68797;49.782;19.054;2023-10-13T16:39:14;12.75;;;5.72;;
79330;SDS011;68797;49.782;19.054;2023-10-13T16:41:41;10.57;;;5.60;;
79330;SDS011;68797;49.782;19.054;2023-10-13T16:44:12;12.27;;;5.30;;
79330;SDS011;68797;49.782;19.054;2023-10-13T16:46:39;10.52;;;5.13;;
79330;SDS011;68797;49.782;19.054;2023-10-13T16:49:07;9.77;;;4.90;;
79330;SDS011;68797;49.782;19.054;2023-10-13T16:51:35;7.35;;;4.40;;
79330;SDS011;68797;49.782;19.054;2023-10-13T16:54:03;7.72;;;4.70;;
79330;SDS011;68797;49.782;19.054;2023-10-13T16:56:31;12.32;;;4.90;;
79330;SDS011;68797;49.782;19.054;2023-10-13T16:58:59;7.68;;;5.10;;
79330;SDS011;68797;49.782;19.054;2023-10-13T17:01:27;8.40;;;5.72;;
79330;SDS011;68797;49.782;19.054;2023-10-13T17:03:54;8.20;;;4.57;;
79330;SDS011;68797;49.782;19.054;2023-10-13T17:06:22;10.88;;;5.82;;
79330;SDS011;68797;49.782;19.054;2023-10-13T17:08:49;14.85;;;5.50;;
79330;SDS011;68797;49.782;19.054;2023-10-13T17:11:18;12.80;;;5.95;;
79330;SDS011;68797;49.782;19.054;2023-10-13T17:13:52;18.70;;;11.57;;
79330;SDS011;68797;49.782;19.054;2023-10-13T17:16:20;13.90;;;6.70;;
79330;SDS011;68797;49.782;19.054;2023-10-13T17:18:49;11.95;;;6.57;;
79330;SDS011;68797;49.782;19.054;2023-10-13T17:21:17;13.02;;;6.13;;
79330;SDS011;68797;49.782;19.054;2023-10-13T17:23:45;11.10;;;5.18;;